createdAt,value
2018-04-15T00:00:31.874Z,4.40
2018-04-15T00:01:32.094Z,4.50
2018-04-15T00:02:32.301Z,4.40
2018-04-15T00:03:32.514Z,4.50
2018-04-15T00:04:34.286Z,4.70
2018-04-15T00:05:32.862Z,4.70
2018-04-15T00:06:33.079Z,4.60
2018-04-15T00:07:33.311Z,4.50
2018-04-15T00:08:35.055Z,4.60
2018-04-15T00:09:33.650Z,4.40
2018-04-15T00:10:33.856Z,4.40
2018-04-15T00:11:34.068Z,4.80
2018-04-15T00:12:34.283Z,4.60
2018-04-15T00:13:36.289Z,4.30
2018-04-15T00:14:34.617Z,4.40
2018-04-15T00:15:34.824Z,3.80
2018-04-15T00:16:36.781Z,4.50
2018-04-15T00:17:35.242Z,4.30
2018-04-15T00:18:35.456Z,4.10
2018-04-15T00:19:35.677Z,4.00
2018-04-15T00:20:37.782Z,4.20
2018-04-15T00:21:36.120Z,4.50
2018-04-15T00:22:36.323Z,4.60
2018-04-15T00:23:36.539Z,4.90
2018-04-15T00:24:36.744Z,4.30
2018-04-15T00:25:36.968Z,4.70
2018-04-15T00:26:37.168Z,4.60
2018-04-15T00:27:37.380Z,4.80
2018-04-15T00:28:37.585Z,4.80
2018-04-15T00:29:37.796Z,4.20
2018-04-15T00:30:38.002Z,4.30
2018-04-15T00:31:38.216Z,4.50
2018-04-15T00:32:38.421Z,4.60
2018-04-15T00:33:38.636Z,4.30
2018-04-15T00:34:38.888Z,4.20
2018-04-15T00:35:39.056Z,4.20
2018-04-15T00:36:39.268Z,3.90
2018-04-15T00:37:39.484Z,4.50
2018-04-15T00:38:39.695Z,4.40
2018-04-15T00:39:39.913Z,4.20
2018-04-15T00:40:40.129Z,4.90
2018-04-15T00:41:40.338Z,4.80
2018-04-15T00:42:40.569Z,5.00
2018-04-15T00:43:40.784Z,4.90
2018-04-15T00:44:41.031Z,4.60
2018-04-15T00:45:41.201Z,4.40
2018-04-15T00:46:43.284Z,4.40
2018-04-15T00:47:41.622Z,4.30
2018-04-15T00:48:43.788Z,4.60
2018-04-15T00:49:43.783Z,4.70
2018-04-15T00:50:42.130Z,5.20
2018-04-15T00:51:42.340Z,5.10
2018-04-15T00:52:43.563Z,4.70
2018-04-15T00:53:42.769Z,5.20
2018-04-15T00:54:42.984Z,5.20
2018-04-15T00:55:43.191Z,5.00
2018-04-15T00:56:43.408Z,5.30
2018-04-15T00:57:43.617Z,4.90
2018-04-15T00:58:43.832Z,5.00
2018-04-15T00:59:44.044Z,5.00
2018-04-15T01:00:44.258Z,4.80
2018-04-15T01:01:46.304Z,4.90
2018-04-15T01:02:46.298Z,5.00
2018-04-15T01:03:44.739Z,5.00
2018-04-15T01:04:44.956Z,5.40
2018-04-15T01:05:45.157Z,4.80
2018-04-15T01:06:45.387Z,4.40
2018-04-15T01:07:45.584Z,5.20
2018-04-15T01:08:45.823Z,6.00
2018-04-15T01:09:46.043Z,5.80
2018-04-15T01:10:46.248Z,5.20
2018-04-15T01:11:46.473Z,5.20
2018-04-15T01:12:46.681Z,4.90
2018-04-15T01:13:46.881Z,5.30
2018-04-15T01:14:47.112Z,4.70
2018-04-15T01:15:47.305Z,5.10
2018-04-15T01:16:47.517Z,4.40
2018-04-15T01:17:49.282Z,4.80
2018-04-15T01:18:47.890Z,4.80
2018-04-15T01:19:48.088Z,4.90
2018-04-15T01:20:49.826Z,5.00
2018-04-15T01:21:48.507Z,4.50
2018-04-15T01:22:50.306Z,4.20
2018-04-15T01:23:48.870Z,4.50
2018-04-15T01:24:49.076Z,4.20
2018-04-15T01:25:49.290Z,4.20
2018-04-15T01:26:49.504Z,4.20
2018-04-15T01:27:51.288Z,4.00
2018-04-15T01:28:49.875Z,3.80
2018-04-15T01:29:50.094Z,4.10
2018-04-15T01:30:50.303Z,4.20
2018-04-15T01:31:52.292Z,5.20
2018-04-15T01:32:50.753Z,7.80
2018-04-15T01:33:50.961Z,6.80
2018-04-15T01:34:51.176Z,7.60
2018-04-15T01:35:53.285Z,7.20
2018-04-15T01:36:51.631Z,6.80
2018-04-15T01:37:51.844Z,7.20
2018-04-15T01:38:52.055Z,6.10
2018-04-15T01:39:52.272Z,5.30
2018-04-15T01:40:52.473Z,5.20
2018-04-15T01:41:54.299Z,5.60
2018-04-15T01:42:52.891Z,4.80
2018-04-15T01:43:53.096Z,4.40
2018-04-15T01:44:53.331Z,4.80
2018-04-15T01:45:55.293Z,4.50
2018-04-15T01:46:53.755Z,4.20
2018-04-15T01:47:55.793Z,4.10
2018-04-15T01:48:54.125Z,3.70
2018-04-15T01:49:55.837Z,3.90
2018-04-15T01:50:54.558Z,4.00
2018-04-15T01:51:54.760Z,5.60
2018-04-15T01:52:54.976Z,5.50
2018-04-15T01:53:55.191Z,5.40
2018-04-15T01:54:55.399Z,5.20
2018-04-15T01:55:55.603Z,4.80
2018-04-15T01:56:55.816Z,4.30
2018-04-15T01:57:56.018Z,4.20
2018-04-15T01:58:56.230Z,3.90
2018-04-15T01:59:58.288Z,4.30
2018-04-15T02:00:59.285Z,4.00
2018-04-15T02:01:56.754Z,4.00
2018-04-15T02:02:56.965Z,3.90
2018-04-15T02:03:57.181Z,3.90
2018-04-15T02:04:57.395Z,3.90
2018-04-15T02:05:57.610Z,3.70
2018-04-15T02:06:57.830Z,4.00
2018-04-15T02:07:58.053Z,4.30
2018-04-15T02:08:58.255Z,4.70
2018-04-15T02:09:58.472Z,4.70
2018-04-15T02:10:58.687Z,4.60
2018-04-15T02:11:58.882Z,4.60
2018-04-15T02:12:59.094Z,4.40
2018-04-15T02:13:59.310Z,4.50
2018-04-15T02:14:59.513Z,4.10
2018-04-15T02:15:59.726Z,3.90
2018-04-15T02:16:59.933Z,4.00
2018-04-15T02:18:00.151Z,3.90
2018-04-15T02:19:00.361Z,3.70
2018-04-15T02:20:00.570Z,3.50
2018-04-15T02:21:00.792Z,3.60
2018-04-15T02:22:01.000Z,3.80
2018-04-15T02:23:02.789Z,3.30
2018-04-15T02:24:01.387Z,3.70
2018-04-15T02:25:01.587Z,3.40
2018-04-15T02:26:01.796Z,3.60
2018-04-15T02:27:02.000Z,3.60
2018-04-15T02:28:03.794Z,3.70
2018-04-15T02:29:02.387Z,3.40
2018-04-15T02:30:02.598Z,3.60
2018-04-15T02:31:02.811Z,3.60
2018-04-15T02:32:04.797Z,3.60
2018-04-15T02:33:03.253Z,3.60
2018-04-15T02:34:03.464Z,3.80
2018-04-15T02:35:03.690Z,3.60
2018-04-15T02:36:03.945Z,3.60
2018-04-15T02:37:04.131Z,3.70
2018-04-15T02:38:04.343Z,3.40
2018-04-15T02:39:04.546Z,3.80
2018-04-15T02:40:06.291Z,3.40
2018-04-15T02:41:04.868Z,4.00
2018-04-15T02:42:05.075Z,3.30
2018-04-15T02:43:05.338Z,3.70
2018-04-15T02:44:05.509Z,3.60
2018-04-15T02:45:05.713Z,3.40
2018-04-15T02:46:05.939Z,3.50
2018-04-15T02:47:06.157Z,3.40
2018-04-15T02:48:08.291Z,3.60
2018-04-15T02:49:06.511Z,3.40
2018-04-15T02:50:06.721Z,3.50
2018-04-15T02:51:08.797Z,3.20
2018-04-15T02:52:07.132Z,3.60
2018-04-15T02:53:07.351Z,3.30
2018-04-15T02:54:07.566Z,3.50
2018-04-15T02:55:08.585Z,3.10
2018-04-15T02:56:07.937Z,3.50
2018-04-15T02:57:08.147Z,3.30
2018-04-15T02:58:08.361Z,3.10
2018-04-15T02:59:08.579Z,3.00
2018-04-15T03:00:08.791Z,3.40
2018-04-15T03:01:12.883Z,3.30
2018-04-15T03:02:09.213Z,3.20
2018-04-15T03:03:09.420Z,3.60
2018-04-15T03:04:09.638Z,3.60
2018-04-15T03:05:09.850Z,3.60
2018-04-15T03:06:10.054Z,4.00
2018-04-15T03:07:10.308Z,4.10
2018-04-15T03:08:10.487Z,4.10
2018-04-15T03:09:10.690Z,3.70
2018-04-15T03:10:10.897Z,4.00
2018-04-15T03:11:11.138Z,4.00
2018-04-15T03:12:14.295Z,3.80
2018-04-15T03:13:11.515Z,3.90
2018-04-15T03:14:11.721Z,3.70
2018-04-15T03:15:11.928Z,3.90
2018-04-15T03:16:12.143Z,4.30
2018-04-15T03:17:12.365Z,3.90
2018-04-15T03:18:12.575Z,3.80
2018-04-15T03:19:12.793Z,3.80
2018-04-15T03:20:13.002Z,3.70
2018-04-15T03:21:14.799Z,3.90
2018-04-15T03:22:13.397Z,3.40
2018-04-15T03:23:13.593Z,3.80
2018-04-15T03:24:13.805Z,3.60
2018-04-15T03:25:14.042Z,4.00
2018-04-15T03:26:14.253Z,3.80
2018-04-15T03:27:14.454Z,4.00
2018-04-15T03:28:14.667Z,3.50
2018-04-15T03:29:14.885Z,3.70
2018-04-15T03:30:15.130Z,3.10
2018-04-15T03:31:15.538Z,3.40
2018-04-15T03:32:15.421Z,3.70
2018-04-15T03:33:15.532Z,3.60
2018-04-15T03:34:15.646Z,3.40
2018-04-15T03:35:15.858Z,3.70
2018-04-15T03:36:17.807Z,3.90
2018-04-15T03:37:16.280Z,3.70
2018-04-15T03:38:16.629Z,3.90
2018-04-15T03:39:16.676Z,3.70
2018-04-15T03:40:18.315Z,4.00
2018-04-15T03:41:16.900Z,4.10
2018-04-15T03:42:17.111Z,4.30
2018-04-15T03:43:17.309Z,4.10
2018-04-15T03:44:17.528Z,4.00
2018-04-15T03:45:22.513Z,4.20
2018-04-15T03:46:17.841Z,4.30
2018-04-15T03:47:19.791Z,4.10
2018-04-15T03:48:18.271Z,4.20
2018-04-15T03:49:18.474Z,4.30
2018-04-15T03:50:18.693Z,4.60
2018-04-15T03:51:21.808Z,4.30
2018-04-15T03:52:19.032Z,4.40
2018-04-15T03:53:19.248Z,4.30
2018-04-15T03:54:21.291Z,4.30
2018-04-15T03:55:19.629Z,4.40
2018-04-15T03:56:19.838Z,4.40
2018-04-15T03:57:20.076Z,4.30
2018-04-15T03:58:20.264Z,4.40
2018-04-15T03:59:20.477Z,4.30
2018-04-15T04:00:22.307Z,4.30
2018-04-15T04:01:20.914Z,4.20
2018-04-15T04:02:21.140Z,4.20
2018-04-15T04:03:21.353Z,3.80
2018-04-15T04:04:21.560Z,4.30
2018-04-15T04:05:21.777Z,3.80
2018-04-15T04:06:22.009Z,4.60
2018-04-15T04:07:22.203Z,4.60
2018-04-15T04:08:22.416Z,5.00
2018-04-15T04:09:23.406Z,4.70
2018-04-15T04:10:24.491Z,4.70
2018-04-15T04:11:22.953Z,4.70
2018-04-15T04:12:23.153Z,5.00
2018-04-15T04:13:23.368Z,5.60
2018-04-15T04:14:23.585Z,4.80
2018-04-15T04:15:23.784Z,5.20
2018-04-15T04:16:24.001Z,5.50
2018-04-15T04:17:24.208Z,5.60
2018-04-15T04:18:24.419Z,5.50
2018-04-15T04:19:24.635Z,5.10
2018-04-15T04:20:24.859Z,5.20
2018-04-15T04:21:25.061Z,5.30
2018-04-15T04:22:25.256Z,4.70
2018-04-15T04:23:25.460Z,5.70
2018-04-15T04:24:25.682Z,5.20
2018-04-15T04:25:25.885Z,5.50
2018-04-15T04:26:26.107Z,5.50
2018-04-15T04:27:26.317Z,5.50
2018-04-15T04:28:26.581Z,6.20
2018-04-15T04:29:26.756Z,5.40
2018-04-15T04:30:26.891Z,5.90
2018-04-15T04:31:27.062Z,5.50
2018-04-15T04:32:27.282Z,5.60
2018-04-15T04:33:27.495Z,5.50
2018-04-15T04:34:27.705Z,5.40
2018-04-15T04:35:27.922Z,5.60
2018-04-15T04:36:28.160Z,5.20
2018-04-15T04:37:28.356Z,5.50
2018-04-15T04:38:28.588Z,5.70
2018-04-15T04:39:30.043Z,5.70
2018-04-15T04:40:29.906Z,5.20
2018-04-15T04:41:30.135Z,6.30
2018-04-15T04:42:32.299Z,5.80
2018-04-15T04:43:29.500Z,6.20
2018-04-15T04:44:29.699Z,6.90
2018-04-15T04:45:29.919Z,6.40
2018-04-15T04:46:30.127Z,6.30
2018-04-15T04:47:32.290Z,5.80
2018-04-15T04:48:30.505Z,6.20
2018-04-15T04:49:30.705Z,6.20
2018-04-15T04:50:32.791Z,5.70
2018-04-15T04:51:31.122Z,5.80
2018-04-15T04:52:33.289Z,5.60
2018-04-15T04:53:31.509Z,5.50
2018-04-15T04:54:31.737Z,5.70
2018-04-15T04:55:31.936Z,5.60
2018-04-15T04:56:32.045Z,5.50
2018-04-15T04:57:32.257Z,5.60
2018-04-15T04:58:32.471Z,5.60
2018-04-15T04:59:32.682Z,5.50
2018-04-15T05:00:32.898Z,5.80
2018-04-15T05:01:33.106Z,5.60
2018-04-15T05:02:33.324Z,5.90
2018-04-15T05:03:33.536Z,5.90
2018-04-15T05:04:33.750Z,5.70
2018-04-15T05:05:33.950Z,5.90
2018-04-15T05:06:34.274Z,5.60
2018-04-15T05:07:34.301Z,6.20
2018-04-15T05:08:34.522Z,5.60
2018-04-15T05:09:34.729Z,5.70
2018-04-15T05:10:36.794Z,5.30
2018-04-15T05:11:35.168Z,5.80
2018-04-15T05:12:36.791Z,5.70
2018-04-15T05:13:35.370Z,6.00
2018-04-15T05:14:35.591Z,5.70
2018-04-15T05:15:35.799Z,5.70
2018-04-15T05:16:36.011Z,5.80
2018-04-15T05:17:36.242Z,5.60
2018-04-15T05:18:37.710Z,5.60
2018-04-15T05:19:36.689Z,5.20
2018-04-15T05:20:36.904Z,4.70
2018-04-15T05:21:37.123Z,4.60
2018-04-15T05:22:37.332Z,4.10
2018-04-15T05:23:37.535Z,4.70
2018-04-15T05:24:37.756Z,4.60
2018-04-15T05:25:37.978Z,5.30
2018-04-15T05:26:38.189Z,6.70
2018-04-15T05:27:38.577Z,14.10
2018-04-15T05:28:38.616Z,15.00
2018-04-15T05:29:38.828Z,12.90
2018-04-15T05:30:39.048Z,11.80
2018-04-15T05:31:39.250Z,9.20
2018-04-15T05:32:39.469Z,8.30
2018-04-15T05:33:39.671Z,8.00
2018-04-15T05:34:39.881Z,7.60
2018-04-15T05:35:40.101Z,7.50
2018-04-15T05:36:40.331Z,7.10
2018-04-15T05:37:40.514Z,6.80
2018-04-15T05:38:40.716Z,7.10
2018-04-15T05:39:40.932Z,6.00
2018-04-15T05:40:41.153Z,6.80
2018-04-15T05:41:41.352Z,6.20
2018-04-15T05:42:41.591Z,6.00
2018-04-15T05:43:41.786Z,5.90
2018-04-15T05:44:41.988Z,5.50
2018-04-15T05:45:42.197Z,5.50
2018-04-15T05:46:42.415Z,5.60
2018-04-15T05:47:42.635Z,5.80
2018-04-15T05:48:42.838Z,5.80
2018-04-15T05:49:43.053Z,5.50
2018-04-15T05:50:43.254Z,5.00
2018-04-15T05:51:43.466Z,5.10
2018-04-15T05:52:45.302Z,4.30
2018-04-15T05:53:45.827Z,4.30
2018-04-15T05:54:44.027Z,4.70
2018-04-15T05:55:44.237Z,4.30
2018-04-15T05:56:44.453Z,5.00
2018-04-15T05:57:44.652Z,4.50
2018-04-15T05:58:44.858Z,4.70
2018-04-15T05:59:45.083Z,4.10
2018-04-15T06:00:45.301Z,4.00
2018-04-15T06:01:45.505Z,4.10
2018-04-15T06:02:45.723Z,4.00
2018-04-15T06:03:45.924Z,3.90
2018-04-15T06:04:46.136Z,3.90
2018-04-15T06:05:46.352Z,4.30
2018-04-15T06:06:49.295Z,4.30
2018-04-15T06:07:46.769Z,4.20
2018-04-15T06:08:46.977Z,4.40
2018-04-15T06:09:48.821Z,4.30
2018-04-15T06:10:47.395Z,4.40
2018-04-15T06:11:47.602Z,4.30
2018-04-15T06:12:47.807Z,4.30
2018-04-15T06:13:48.026Z,4.20
2018-04-15T06:14:48.233Z,4.40
2018-04-15T06:15:48.440Z,4.00
2018-04-15T06:16:48.658Z,4.30
2018-04-15T06:17:48.865Z,4.20
2018-04-15T06:18:49.082Z,4.50
2018-04-15T06:19:49.307Z,4.50
2018-04-15T06:20:49.501Z,4.30
2018-04-15T06:21:49.717Z,4.60
2018-04-15T06:22:49.930Z,4.90
2018-04-15T06:23:50.143Z,5.30
2018-04-15T06:24:50.366Z,4.70
2018-04-15T06:25:52.301Z,5.30
2018-04-15T06:26:50.783Z,5.20
2018-04-15T06:27:50.993Z,4.90
2018-04-15T06:28:51.199Z,4.60
2018-04-15T06:29:51.413Z,5.10
2018-04-15T06:30:51.639Z,4.30
2018-04-15T06:31:54.797Z,4.70
2018-04-15T06:32:52.028Z,4.80
2018-04-15T06:33:52.208Z,4.70
2018-04-15T06:34:52.416Z,4.30
2018-04-15T06:35:52.640Z,4.50
2018-04-15T06:36:52.871Z,4.70
2018-04-15T06:37:54.792Z,4.80
2018-04-15T06:38:53.261Z,4.40
2018-04-15T06:39:53.477Z,4.90
2018-04-15T06:40:53.697Z,4.60
2018-04-15T06:41:55.793Z,4.70
2018-04-15T06:42:54.121Z,4.50
2018-04-15T06:43:56.292Z,4.50
2018-04-15T06:44:54.518Z,4.70
2018-04-15T06:45:54.743Z,4.20
2018-04-15T06:46:54.962Z,4.60
2018-04-15T06:47:55.181Z,4.50
2018-04-15T06:48:55.401Z,4.40
2018-04-15T06:49:55.595Z,4.40
2018-04-15T06:50:55.811Z,4.10
2018-04-15T06:51:57.797Z,4.40
2018-04-15T06:52:56.257Z,4.40
2018-04-15T06:53:58.292Z,4.30
2018-04-15T06:54:56.624Z,4.30
2018-04-15T06:55:58.802Z,4.10
2018-04-15T06:56:58.811Z,4.00
2018-04-15T06:57:57.143Z,4.20
2018-04-15T06:58:57.383Z,4.20
2018-04-15T06:59:57.577Z,3.70
2018-04-15T07:00:57.792Z,4.10
2018-04-15T07:01:57.994Z,4.00
2018-04-15T07:02:58.215Z,3.90
2018-04-15T07:03:58.418Z,4.20
2018-04-15T07:05:02.293Z,4.00
2018-04-15T07:05:58.761Z,3.90
2018-04-15T07:06:58.987Z,4.10
2018-04-15T07:07:59.191Z,4.10
2018-04-15T07:09:01.296Z,4.00
2018-04-15T07:09:59.636Z,4.10
2018-04-15T07:10:59.853Z,4.10
2018-04-15T07:12:02.808Z,4.10
2018-04-15T07:13:00.271Z,4.00
2018-04-15T07:14:00.494Z,3.70
2018-04-15T07:15:00.701Z,4.00
2018-04-15T07:16:02.793Z,3.90
2018-04-15T07:17:01.144Z,3.70
2018-04-15T07:18:01.361Z,4.00
2018-04-15T07:19:03.297Z,3.80
2018-04-15T07:20:01.755Z,4.00
2018-04-15T07:21:01.958Z,3.60
2018-04-15T07:22:02.179Z,3.60
2018-04-15T07:23:02.381Z,4.00
2018-04-15T07:24:04.295Z,3.90
2018-04-15T07:25:02.769Z,3.80
2018-04-15T07:26:02.975Z,4.20
2018-04-15T07:27:03.179Z,4.20
2018-04-15T07:28:05.296Z,3.90
2018-04-15T07:29:03.509Z,4.10
2018-04-15T07:30:03.729Z,4.20
2018-04-15T07:31:03.946Z,4.10
2018-04-15T07:32:04.147Z,4.10
2018-04-15T07:33:04.365Z,4.30
2018-04-15T07:34:04.601Z,4.20
2018-04-15T07:35:06.802Z,4.10
2018-04-15T07:36:05.031Z,3.90
2018-04-15T07:37:05.237Z,4.10
2018-04-15T07:38:07.295Z,3.80
2018-04-15T07:39:07.295Z,3.70
2018-04-15T07:40:05.770Z,4.00
2018-04-15T07:41:05.991Z,4.30
2018-04-15T07:42:07.798Z,4.70
2018-04-15T07:43:06.393Z,5.50
2018-04-15T07:44:10.295Z,5.00
2018-04-15T07:45:06.771Z,3.80
2018-04-15T07:46:06.999Z,3.50
2018-04-15T07:47:07.224Z,3.60
2018-04-15T07:48:07.442Z,3.40
2018-04-15T07:49:07.654Z,3.60
2018-04-15T07:50:07.868Z,3.40
2018-04-15T07:51:08.088Z,4.90
2018-04-15T07:52:08.310Z,3.70
2018-04-15T07:53:10.300Z,3.50
2018-04-15T07:54:08.750Z,3.70
2018-04-15T07:55:10.799Z,3.80
2018-04-15T07:56:09.134Z,3.70
2018-04-15T07:57:09.338Z,3.70
2018-04-15T07:58:09.559Z,3.60
2018-04-15T07:59:11.299Z,3.70
2018-04-15T08:00:11.030Z,3.70
2018-04-15T08:01:10.248Z,3.80
2018-04-15T08:02:10.447Z,3.50
2018-04-15T08:03:10.685Z,3.60
2018-04-15T08:04:10.895Z,3.40
2018-04-15T08:05:11.116Z,3.70
2018-04-15T08:06:13.307Z,3.60
2018-04-15T08:07:11.536Z,3.70
2018-04-15T08:08:11.762Z,3.40
2018-04-15T08:09:11.961Z,3.40
2018-04-15T08:10:12.170Z,3.70
2018-04-15T08:11:12.392Z,3.50
2018-04-15T08:12:12.605Z,3.50
2018-04-15T08:13:12.816Z,3.70
2018-04-15T08:14:14.806Z,3.70
2018-04-15T08:15:13.267Z,3.30
2018-04-15T08:16:13.479Z,3.20
2018-04-15T08:17:15.311Z,3.10
2018-04-15T08:18:13.886Z,3.30
2018-04-15T08:19:14.122Z,3.20
2018-04-15T08:20:18.305Z,3.30
2018-04-15T08:21:16.297Z,3.30
2018-04-15T08:22:16.301Z,3.50
2018-04-15T08:23:16.300Z,3.60
2018-04-15T08:24:14.881Z,3.50
2018-04-15T08:25:15.146Z,3.80
2018-04-15T08:26:15.312Z,3.20
2018-04-15T08:27:15.519Z,3.50
2018-04-15T08:28:15.739Z,3.50
2018-04-15T08:29:18.799Z,3.70
2018-04-15T08:30:16.143Z,3.60
2018-04-15T08:31:16.354Z,3.60
2018-04-15T08:32:16.568Z,3.90
2018-04-15T08:33:18.309Z,3.70
2018-04-15T08:34:17.012Z,3.70
2018-04-15T08:35:17.258Z,3.70
2018-04-15T08:36:17.453Z,3.70
2018-04-15T08:37:17.675Z,3.80
2018-04-15T08:38:17.894Z,3.60
2018-04-15T08:39:18.112Z,3.70
2018-04-15T08:40:18.335Z,3.30
2018-04-15T08:41:18.546Z,3.90
2018-04-15T08:42:18.770Z,3.40
2018-04-15T08:43:21.368Z,3.60
2018-04-15T08:44:19.211Z,3.30
2018-04-15T08:45:19.425Z,3.50
2018-04-15T08:46:19.645Z,3.20
2018-04-15T08:47:21.812Z,3.30
2018-04-15T08:48:20.025Z,3.10
2018-04-15T08:49:20.237Z,3.30
2018-04-15T08:50:21.465Z,3.50
2018-04-15T08:51:20.667Z,3.40
2018-04-15T08:52:20.884Z,3.70
2018-04-15T08:53:21.102Z,3.70
2018-04-15T08:54:21.315Z,3.10
2018-04-15T08:55:21.543Z,3.20
2018-04-15T08:56:21.751Z,3.50
2018-04-15T08:57:21.966Z,3.60
2018-04-15T08:58:22.181Z,3.30
2018-04-15T08:59:25.306Z,4.20
2018-04-15T09:00:22.533Z,4.20
2018-04-15T09:01:22.755Z,3.60
2018-04-15T09:02:22.971Z,4.10
2018-04-15T09:03:23.187Z,4.30
2018-04-15T09:04:23.397Z,4.10
2018-04-15T09:05:23.610Z,4.20
2018-04-15T09:06:23.833Z,4.30
2018-04-15T09:07:24.045Z,4.30
2018-04-15T09:08:24.272Z,3.90
2018-04-15T09:09:24.500Z,4.20
2018-04-15T09:10:24.718Z,4.30
2018-04-15T09:11:24.939Z,4.40
2018-04-15T09:12:25.170Z,4.30
2018-04-15T09:13:26.639Z,4.40
2018-04-15T09:14:27.320Z,4.20
2018-04-15T09:15:25.797Z,4.40
2018-04-15T09:16:27.803Z,4.30
2018-04-15T09:17:26.156Z,4.40
2018-04-15T09:18:28.305Z,4.50
2018-04-15T09:19:26.535Z,4.80
2018-04-15T09:20:26.748Z,5.50
2018-04-15T09:21:26.962Z,5.10
2018-04-15T09:22:27.192Z,5.70
2018-04-15T09:23:27.446Z,5.60
2018-04-15T09:24:27.643Z,5.80
2018-04-15T09:25:30.807Z,5.70
2018-04-15T09:26:31.806Z,6.10
2018-04-15T09:27:28.160Z,6.00
2018-04-15T09:28:36.307Z,6.30
2018-04-15T09:29:29.532Z,6.20
2018-04-15T09:30:29.763Z,5.50
2018-04-15T09:31:28.975Z,5.70
2018-04-15T09:32:29.235Z,5.30
2018-04-15T09:33:37.303Z,5.30
2018-04-15T09:34:29.645Z,5.40
2018-04-15T09:35:37.874Z,5.00
2018-04-15T09:36:30.034Z,5.10
2018-04-15T09:37:30.265Z,4.70
2018-04-15T09:38:34.353Z,4.70
2018-04-15T09:39:51.715Z,4.60
2018-04-15T09:40:30.918Z,4.60
2018-04-15T09:41:33.803Z,4.80
2018-04-15T09:42:31.324Z,4.50
2018-04-15T09:43:32.267Z,4.30
2018-04-15T09:44:35.309Z,4.60
2018-04-15T09:45:31.815Z,4.50
2018-04-15T09:46:31.938Z,5.00
2018-04-15T09:47:35.822Z,4.70
2018-04-15T09:48:34.297Z,4.50
2018-04-15T09:49:34.342Z,4.60
2018-04-15T09:50:32.692Z,4.20
2018-04-15T09:53:04.737Z,4.50
2018-04-15T09:54:05.521Z,4.50
2018-04-15T09:55:05.120Z,3.90
2018-04-15T09:56:05.349Z,4.40
2018-04-15T09:57:05.540Z,4.60
2018-04-15T09:58:10.647Z,4.60
2018-04-15T09:59:07.555Z,4.30
2018-04-15T10:00:08.806Z,4.40
2018-04-15T10:01:27.253Z,3.90
2018-04-15T10:02:07.501Z,3.70
2018-04-15T10:03:06.633Z,3.50
2018-04-15T10:04:08.588Z,3.60
2018-04-15T10:05:09.536Z,3.20
2018-04-15T10:06:08.529Z,3.20
2018-04-15T10:07:07.254Z,9.50
2018-04-15T10:08:09.087Z,3.10
2018-04-15T10:09:09.546Z,14.90
2018-04-15T10:10:09.494Z,3.90
2018-04-15T10:11:08.127Z,3.50
2018-04-15T10:12:10.049Z,3.60
2018-04-15T10:13:12.440Z,3.50
2018-04-15T10:14:20.535Z,3.50
2018-04-15T10:15:10.555Z,4.00
2018-04-15T10:16:10.538Z,3.40
2018-04-15T10:17:09.263Z,2.90
2018-04-15T10:18:10.526Z,3.50
2018-04-15T10:19:10.723Z,3.10
2018-04-15T10:20:09.839Z,2.80
2018-04-15T10:21:16.052Z,3.40
2018-04-15T10:22:10.301Z,3.00
2018-04-15T10:23:12.035Z,3.10
2018-04-15T10:24:15.502Z,3.20
2018-04-15T10:25:12.539Z,3.00
2018-04-15T10:26:11.065Z,3.20
2018-04-15T10:27:13.049Z,3.60
2018-04-15T10:28:13.035Z,3.40
2018-04-15T10:29:15.547Z,3.10
2018-04-15T10:30:19.542Z,3.00
2018-04-15T10:31:12.159Z,3.10
2018-04-15T10:32:14.033Z,3.20
2018-04-15T10:33:14.034Z,3.30
2018-04-15T10:34:12.643Z,3.30
2018-04-15T10:35:16.555Z,3.20
2018-04-15T10:36:14.553Z,3.30
2018-04-15T10:37:17.033Z,3.00
2018-04-15T10:38:15.211Z,3.30
2018-04-15T10:39:15.554Z,3.20
2018-04-15T10:40:13.883Z,3.20
2018-04-15T10:41:30.037Z,3.10
2018-04-15T10:42:21.038Z,2.80
2018-04-15T10:43:15.157Z,3.10
2018-04-15T10:44:16.534Z,2.90
2018-04-15T10:45:16.552Z,3.10
2018-04-15T10:46:14.925Z,2.90
2018-04-15T10:47:16.000Z,3.20
2018-04-15T10:48:20.039Z,3.10
2018-04-15T10:49:17.042Z,2.60
2018-04-15T10:50:15.632Z,2.80
2018-04-15T10:51:18.540Z,2.90
2018-04-15T10:52:16.041Z,2.30
2018-04-15T10:53:16.305Z,2.30
2018-04-15T10:54:18.051Z,2.50
2018-04-15T10:55:18.540Z,2.60
2018-04-15T10:56:18.582Z,2.40
2018-04-15T10:57:16.938Z,2.20
2018-04-15T10:58:23.259Z,2.30
2018-04-15T10:59:21.037Z,2.00
2018-04-15T11:00:29.557Z,2.30
2018-04-15T11:01:18.830Z,2.40
2018-04-15T11:02:20.506Z,2.50
2018-04-15T11:03:30.042Z,2.10
2018-04-15T11:04:20.044Z,1.70
2018-04-15T11:05:18.430Z,1.80
2018-04-15T11:06:20.064Z,1.70
2018-04-15T11:07:21.561Z,1.70
2018-04-15T11:08:19.082Z,1.80
2018-04-15T11:09:21.047Z,1.70
2018-04-15T11:10:20.491Z,2.10
2018-04-15T11:11:22.540Z,2.20
2018-04-15T11:12:19.753Z,2.10
2018-04-15T11:13:22.558Z,2.00
2018-04-15T11:14:20.182Z,2.30
2018-04-15T11:15:22.036Z,2.20
2018-04-15T11:16:25.091Z,2.30
2018-04-15T11:17:22.550Z,2.10
2018-04-15T11:18:20.923Z,3.10
2018-04-15T11:19:23.049Z,2.40
2018-04-15T11:20:21.308Z,2.60
2018-04-15T11:21:21.539Z,2.80
2018-04-15T11:22:23.567Z,2.60
2018-04-15T11:23:25.539Z,2.60
2018-04-15T11:24:24.041Z,2.60
2018-04-15T11:25:26.055Z,2.40
2018-04-15T11:26:24.067Z,2.90
2018-04-15T11:27:26.540Z,2.60
2018-04-15T11:28:24.538Z,2.60
2018-04-15T11:29:24.551Z,2.50
2018-04-15T11:30:25.056Z,2.60
2018-04-15T11:31:25.037Z,2.30
2018-04-15T11:32:27.076Z,2.40
2018-04-15T11:33:23.799Z,2.70
2018-04-15T11:34:25.548Z,2.60
2018-04-15T11:35:24.168Z,2.90
2018-04-15T11:36:26.043Z,2.90
2018-04-15T11:37:24.576Z,2.80
2018-04-15T11:38:26.871Z,2.70
2018-04-15T11:39:24.908Z,2.70
2018-04-15T11:40:25.129Z,2.70
2018-04-15T11:41:27.045Z,2.70
2018-04-15T11:42:29.039Z,2.80
2018-04-15T11:43:27.548Z,2.70
2018-04-15T11:44:27.540Z,2.50
2018-04-15T11:45:29.043Z,3.20
2018-04-15T11:46:28.041Z,3.10
2018-04-15T11:47:28.057Z,3.10
2018-04-15T11:48:28.805Z,3.00
2018-04-15T11:49:28.600Z,2.90
2018-04-15T11:50:28.557Z,3.00
2018-04-15T11:51:27.152Z,3.00
2018-04-15T11:52:27.642Z,3.40
2018-04-15T11:53:29.547Z,3.20
2018-04-15T11:54:27.776Z,3.20
2018-04-15T11:55:27.895Z,2.90
2018-04-15T11:56:36.055Z,3.20
2018-04-15T11:57:30.043Z,3.30
2018-04-15T11:58:30.101Z,3.20
2018-04-15T11:59:31.075Z,3.00
2018-04-15T12:00:28.645Z,2.90
2018-04-15T12:01:38.408Z,3.40
2018-04-15T12:02:32.072Z,3.30
2018-04-15T12:03:30.847Z,3.00
2018-04-15T12:04:30.854Z,2.70
2018-04-15T12:05:31.598Z,3.10
2018-04-15T12:06:32.150Z,3.00
2018-04-15T12:07:32.361Z,3.20
2018-04-15T12:08:31.566Z,2.90
2018-04-15T12:09:32.068Z,3.00
2018-04-15T12:10:30.292Z,3.00
2018-04-15T12:11:30.541Z,2.70
2018-04-15T12:12:32.550Z,2.90
2018-04-15T12:13:30.891Z,2.80
2018-04-15T12:14:31.099Z,2.90
2018-04-15T12:15:34.048Z,2.80
2018-04-15T12:16:33.046Z,2.70
2018-04-15T12:17:31.639Z,2.40
2018-04-15T12:18:31.864Z,2.60
2018-04-15T12:19:34.151Z,2.40
2018-04-15T12:20:34.084Z,2.40
2018-04-15T12:21:34.044Z,2.90
2018-04-15T12:22:40.542Z,2.20
2018-04-15T12:23:36.565Z,2.60
2018-04-15T12:24:34.552Z,2.40
2018-04-15T12:25:34.159Z,2.30
2018-04-15T12:26:33.389Z,2.20
2018-04-15T12:27:35.733Z,2.20
2018-04-15T12:28:40.102Z,1.80
2018-04-15T12:29:37.555Z,2.10
2018-04-15T12:30:36.085Z,2.20
2018-04-15T12:31:34.300Z,2.10
2018-04-15T12:32:35.928Z,2.40
2018-04-15T12:33:34.765Z,2.00
2018-04-15T12:34:35.987Z,2.50
2018-04-15T12:35:37.119Z,2.00
2018-04-15T12:36:35.390Z,2.30
2018-04-15T12:37:35.609Z,1.90
2018-04-15T12:38:37.561Z,2.00
2018-04-15T12:39:38.692Z,2.00
2018-04-15T12:40:39.053Z,2.00
2018-04-15T12:41:36.516Z,2.00
2018-04-15T12:42:44.560Z,2.10
2018-04-15T12:43:37.889Z,2.10
2018-04-15T12:44:37.110Z,2.40
2018-04-15T12:45:39.047Z,2.30
2018-04-15T12:46:37.581Z,2.20
2018-04-15T12:47:37.776Z,2.40
2018-04-15T12:48:37.971Z,2.60
2018-04-15T12:49:40.179Z,2.60
2018-04-15T12:50:38.514Z,2.40
2018-04-15T12:51:41.523Z,2.50
2018-04-15T12:52:40.734Z,2.40
2018-04-15T12:53:40.122Z,2.40
2018-04-15T12:54:39.633Z,2.40
2018-04-15T12:55:42.570Z,2.10
2018-04-15T12:56:41.255Z,2.50
2018-04-15T12:57:40.648Z,2.50
2018-04-15T12:58:42.737Z,2.30
2018-04-15T12:59:44.161Z,2.10
2018-04-15T13:00:40.251Z,2.00
2018-04-15T13:01:44.112Z,2.00
2018-04-15T13:02:40.805Z,2.20
2018-04-15T13:03:40.959Z,2.50
2018-04-15T13:04:42.560Z,2.20
2018-04-15T13:05:43.063Z,2.30
2018-04-15T13:06:41.277Z,2.30
2018-04-15T13:07:43.067Z,2.10
2018-04-15T13:08:41.654Z,2.10
2018-04-15T13:09:43.549Z,1.70
2018-04-15T13:10:43.033Z,2.00
2018-04-15T13:11:49.557Z,2.00
2018-04-15T13:12:45.066Z,2.00
2018-04-15T13:13:44.071Z,1.70
2018-04-15T13:14:42.773Z,1.80
2018-04-15T13:15:43.127Z,1.70
2018-04-15T13:16:43.339Z,1.90
2018-04-15T13:17:45.059Z,2.00
2018-04-15T13:18:43.658Z,3.10
2018-04-15T13:19:43.895Z,1.80
2018-04-15T13:20:48.159Z,1.70
2018-04-15T13:22:07.154Z,1.70
2018-04-15T13:22:44.609Z,2.00